createdAt,value
2019-05-17T00:00:04.079Z,9.77
2019-05-17T00:02:37.767Z,9.76
2019-05-17T00:05:11.379Z,9.68
2019-05-17T00:07:47.259Z,9.83
2019-05-17T00:10:19.925Z,9.88
2019-05-17T00:12:53.339Z,9.87
2019-05-17T00:15:27.349Z,9.90
2019-05-17T00:18:00.823Z,9.84
2019-05-17T00:20:34.214Z,9.86
2019-05-17T00:23:07.708Z,9.94
2019-05-17T00:25:41.098Z,9.97
2019-05-17T00:28:16.448Z,9.93
2019-05-17T00:30:49.637Z,9.83
2019-05-17T00:33:23.038Z,9.81
2019-05-17T00:35:56.447Z,9.77
2019-05-17T00:38:29.945Z,9.70
2019-05-17T00:41:03.353Z,9.72
2019-05-17T00:43:36.996Z,9.75
2019-05-17T00:46:10.520Z,9.81
2019-05-17T00:48:44.006Z,9.76
2019-05-17T00:51:17.386Z,9.77
2019-05-17T00:53:50.800Z,9.84
2019-05-17T00:56:26.481Z,9.82
2019-05-17T00:58:59.423Z,9.90
2019-05-17T01:01:32.821Z,9.83
2019-05-17T01:04:06.895Z,9.82
2019-05-17T01:06:40.484Z,9.76
2019-05-17T01:09:13.900Z,9.74
2019-05-17T01:11:47.556Z,9.76
2019-05-17T01:14:21.064Z,9.82
2019-05-17T01:16:56.366Z,9.90
2019-05-17T01:19:29.607Z,9.95
2019-05-17T01:22:03.127Z,9.92
2019-05-17T01:24:36.954Z,9.94
2019-05-17T01:27:10.308Z,9.94
2019-05-17T01:29:43.711Z,9.88
2019-05-17T01:32:17.362Z,9.85
2019-05-17T01:34:51.001Z,9.77
2019-05-17T01:37:24.460Z,9.83
2019-05-17T01:39:57.918Z,9.85
2019-05-17T01:42:31.292Z,9.84
2019-05-17T01:45:07.277Z,9.80
2019-05-17T01:47:40.794Z,9.87
2019-05-17T01:50:17.245Z,9.90
2019-05-17T01:52:49.947Z,9.93
2019-05-17T01:55:23.350Z,9.92
2019-05-17T01:57:56.739Z,9.83
2019-05-17T02:00:30.166Z,9.93
2019-05-17T02:03:03.543Z,9.96
2019-05-17T02:05:37.543Z,9.93
2019-05-17T02:08:11.038Z,9.97
2019-05-17T02:10:46.515Z,10.04
2019-05-17T02:13:19.592Z,10.06
2019-05-17T02:15:53.064Z,9.99
2019-05-17T02:18:26.718Z,10.01
2019-05-17T02:21:00.136Z,10.07
2019-05-17T02:23:33.530Z,9.96
2019-05-17T02:26:07.077Z,9.96
2019-05-17T02:28:41.476Z,9.92
2019-05-17T02:31:15.230Z,9.96
2019-05-17T02:33:48.779Z,10.01
2019-05-17T02:36:22.829Z,9.99
2019-05-17T02:38:56.374Z,10.02
2019-05-17T02:41:33.053Z,10.05
2019-05-17T02:44:05.175Z,10.07
2019-05-17T02:46:38.581Z,9.99
2019-05-17T02:49:13.670Z,9.92
2019-05-17T02:51:47.112Z,9.90
2019-05-17T02:54:23.237Z,9.90
2019-05-17T02:56:55.640Z,9.98
2019-05-17T02:59:29.033Z,9.95
2019-05-17T03:02:03.545Z,9.98
2019-05-17T03:04:37.187Z,9.92
2019-05-17T03:07:13.573Z,9.77
2019-05-17T03:09:45.737Z,9.84
2019-05-17T03:12:19.155Z,9.87
2019-05-17T03:14:52.954Z,9.88
2019-05-17T03:17:26.436Z,9.93
2019-05-17T03:20:03.570Z,9.86
2019-05-17T03:22:35.020Z,9.85
2019-05-17T03:25:08.634Z,9.81
2019-05-17T03:27:42.901Z,9.80
2019-05-17T03:30:18.921Z,9.79
2019-05-17T03:32:56.494Z,9.84
2019-05-17T03:35:29.066Z,9.85
2019-05-17T03:38:03.725Z,9.72
2019-05-17T03:41:03.595Z,9.81
2019-05-17T03:43:13.861Z,9.81
2019-05-17T03:45:47.532Z,9.90
2019-05-17T03:48:22.180Z,9.93
2019-05-17T03:50:55.828Z,9.92
2019-05-17T03:53:29.373Z,9.96
2019-05-17T03:56:03.172Z,9.84
2019-05-17T03:58:36.753Z,9.87
2019-05-17T04:01:10.132Z,9.92
2019-05-17T04:03:43.675Z,9.89
2019-05-17T04:06:16.991Z,9.80
2019-05-17T04:08:52.753Z,9.82
2019-05-17T04:11:31.480Z,9.84
2019-05-17T04:14:02.931Z,9.82
2019-05-17T04:16:35.926Z,9.82
2019-05-17T04:19:09.400Z,9.93
2019-05-17T04:21:43.024Z,9.97
2019-05-17T04:24:16.541Z,9.96
2019-05-17T04:26:52.367Z,9.95
2019-05-17T04:29:25.078Z,9.97
2019-05-17T04:31:58.773Z,10.00
2019-05-17T04:34:33.631Z,10.06
2019-05-17T04:37:07.284Z,10.09
2019-05-17T04:39:43.200Z,10.11
2019-05-17T04:42:15.827Z,10.20
2019-05-17T04:44:52.450Z,10.22
2019-05-17T04:47:24.421Z,10.29
2019-05-17T04:49:57.830Z,10.21
2019-05-17T04:52:33.676Z,10.11
2019-05-17T04:55:06.463Z,10.12
2019-05-17T04:57:43.289Z,10.13
2019-05-17T05:00:16.046Z,10.03
2019-05-17T05:02:52.521Z,10.22
2019-05-17T05:05:24.642Z,10.33
2019-05-17T05:07:58.031Z,10.42
2019-05-17T05:10:33.321Z,10.45
2019-05-17T05:13:06.639Z,10.48
2019-05-17T05:15:44.312Z,10.54
2019-05-17T05:18:18.123Z,10.58
2019-05-17T05:20:52.732Z,10.59
2019-05-17T05:23:26.285Z,10.68
2019-05-17T05:25:59.697Z,10.83
2019-05-17T05:28:33.093Z,10.86
2019-05-17T05:31:06.523Z,10.92
2019-05-17T05:33:41.953Z,10.79
2019-05-17T05:36:15.060Z,10.91
2019-05-17T05:38:48.457Z,10.79
2019-05-17T05:41:22.609Z,10.78
2019-05-17T05:43:56.034Z,10.72
2019-05-17T05:46:31.654Z,10.72
2019-05-17T05:49:04.740Z,10.85
2019-05-17T05:51:38.167Z,10.90
2019-05-17T05:54:12.280Z,10.85
2019-05-17T05:56:46.046Z,10.97
2019-05-17T05:59:19.543Z,11.02
2019-05-17T06:01:52.927Z,10.95
2019-05-17T06:04:26.510Z,11.07
2019-05-17T06:06:59.945Z,11.19
2019-05-17T06:09:33.340Z,11.28
2019-05-17T06:12:18.982Z,11.24
2019-05-17T06:14:42.012Z,11.36
2019-05-17T06:17:15.431Z,11.29
2019-05-17T06:19:48.891Z,11.58
2019-05-17T06:22:22.489Z,11.42
2019-05-17T06:24:55.996Z,11.72
2019-05-17T06:27:29.393Z,11.98
2019-05-17T06:30:02.954Z,11.97
2019-05-17T06:32:36.373Z,11.87
2019-05-17T06:35:12.356Z,11.97
2019-05-17T06:37:45.074Z,12.08
2019-05-17T06:40:18.562Z,12.53
2019-05-17T06:42:52.513Z,12.75
2019-05-17T06:45:26.122Z,13.40
2019-05-17T06:47:59.533Z,12.71
2019-05-17T06:50:32.966Z,13.01
2019-05-17T06:53:06.525Z,12.97
2019-05-17T06:55:42.140Z,12.95
2019-05-17T06:58:15.109Z,13.22
2019-05-17T07:00:49.764Z,13.16
2019-05-17T07:03:23.237Z,13.68
2019-05-17T07:05:59.631Z,13.69
2019-05-17T07:08:33.227Z,14.07
2019-05-17T07:11:06.629Z,15.06
2019-05-17T07:13:40.083Z,14.71
2019-05-17T07:16:13.479Z,15.95
2019-05-17T07:18:49.273Z,15.62
2019-05-17T07:21:22.032Z,16.07
2019-05-17T07:23:55.458Z,15.12
2019-05-17T07:26:30.236Z,14.85
2019-05-17T07:29:03.767Z,16.08
2019-05-17T07:31:37.174Z,16.22
2019-05-17T07:34:11.321Z,15.77
2019-05-17T07:36:44.756Z,16.32
2019-05-17T07:39:20.321Z,16.67
2019-05-17T07:41:53.319Z,17.04
2019-05-17T07:44:26.821Z,17.68
2019-05-17T07:47:01.029Z,16.33
2019-05-17T07:49:34.457Z,16.54
2019-05-17T07:52:10.196Z,15.86
2019-05-17T07:54:43.014Z,14.93
2019-05-17T07:57:16.449Z,15.50
2019-05-17T07:59:50.807Z,16.02
2019-05-17T08:02:24.276Z,15.09
2019-05-17T08:05:00.237Z,15.87
2019-05-17T08:07:32.923Z,16.02
2019-05-17T08:10:07.543Z,15.77
2019-05-17T08:12:41.226Z,15.86
2019-05-17T08:15:14.784Z,15.93
2019-05-17T08:17:50.178Z,15.93
2019-05-17T08:20:23.460Z,15.28
2019-05-17T08:22:56.869Z,16.45
2019-05-17T08:25:30.516Z,16.88
2019-05-17T08:28:03.900Z,16.98
2019-05-17T08:30:37.313Z,17.27
2019-05-17T08:33:11.263Z,17.00
2019-05-17T08:35:44.703Z,16.95
2019-05-17T08:38:19.744Z,16.72
2019-05-17T08:40:53.379Z,16.20
2019-05-17T08:43:38.310Z,16.53
2019-05-17T08:46:02.897Z,16.64
2019-05-17T08:48:36.442Z,16.76
2019-05-17T08:51:10.743Z,16.90
2019-05-17T08:53:44.393Z,17.23
2019-05-17T08:56:20.372Z,17.87
2019-05-17T08:58:52.931Z,18.17
2019-05-17T09:01:26.323Z,17.86
2019-05-17T09:04:00.006Z,17.56
2019-05-17T09:06:33.422Z,17.12
2019-05-17T09:09:09.819Z,17.95
2019-05-17T09:11:42.690Z,18.25
2019-05-17T09:14:16.099Z,17.63
2019-05-17T09:16:51.111Z,17.70
2019-05-17T09:19:24.491Z,18.17
2019-05-17T09:21:59.804Z,17.55
2019-05-17T09:24:33.244Z,17.60
2019-05-17T09:27:06.714Z,17.03
2019-05-17T09:29:40.449Z,17.35
2019-05-17T09:32:13.908Z,16.86
2019-05-17T09:34:49.658Z,17.59
2019-05-17T09:37:22.713Z,17.36
2019-05-17T09:39:56.127Z,17.18
2019-05-17T09:42:30.120Z,17.23
2019-05-17T09:45:04.307Z,17.06
2019-05-17T09:47:39.819Z,16.78
2019-05-17T09:50:14.845Z,16.60
2019-05-17T09:52:49.482Z,17.02
2019-05-17T09:55:23.144Z,16.69
2019-05-17T09:57:56.661Z,16.98
2019-05-17T10:00:31.296Z,16.78
2019-05-17T10:03:04.781Z,17.07
2019-05-17T10:05:40.565Z,17.69
2019-05-17T10:08:13.280Z,16.65
2019-05-17T10:10:46.736Z,16.78
2019-05-17T10:13:20.311Z,16.81
2019-05-17T10:15:53.725Z,17.08
2019-05-17T10:18:29.439Z,16.98
2019-05-17T10:21:02.300Z,18.18
2019-05-17T10:23:35.679Z,17.88
2019-05-17T10:26:10.251Z,17.85
2019-05-17T10:28:43.888Z,17.69
2019-05-17T10:31:19.607Z,17.78
2019-05-17T10:33:52.431Z,17.96
2019-05-17T10:36:25.855Z,17.25
2019-05-17T10:38:59.398Z,17.72
2019-05-17T10:41:32.817Z,17.49
2019-05-17T10:44:06.207Z,17.70
2019-05-17T10:46:40.704Z,17.68
2019-05-17T10:49:14.246Z,18.16
2019-05-17T10:51:49.403Z,17.41
2019-05-17T10:54:23.031Z,17.84
2019-05-17T10:56:56.414Z,18.02
2019-05-17T10:59:29.785Z,17.99
2019-05-17T11:02:03.242Z,17.27
2019-05-17T11:04:36.633Z,17.41
2019-05-17T11:07:10.589Z,17.87
2019-05-17T11:09:44.188Z,17.96
2019-05-17T11:12:17.627Z,17.70
2019-05-17T11:15:09.426Z,17.83
2019-05-17T11:17:26.186Z,17.41
2019-05-17T11:19:59.640Z,17.64
2019-05-17T11:22:33.146Z,17.86
2019-05-17T11:25:07.779Z,18.00
2019-05-17T11:27:41.210Z,18.02
2019-05-17T11:30:14.758Z,18.21
2019-05-17T11:32:48.170Z,17.96
2019-05-17T11:35:24.593Z,18.25
2019-05-17T11:37:56.730Z,18.11
2019-05-17T11:40:30.681Z,18.14
2019-05-17T11:43:04.242Z,18.14
2019-05-17T11:45:37.638Z,18.30
2019-05-17T11:48:11.072Z,18.20
2019-05-17T11:50:44.452Z,18.35
2019-05-17T11:53:17.880Z,18.91
2019-05-17T11:55:51.352Z,19.04
2019-05-17T11:58:24.752Z,19.47
2019-05-17T12:00:58.174Z,18.42
2019-05-17T12:03:31.597Z,18.08
2019-05-17T12:06:05.177Z,18.11
2019-05-17T12:08:38.711Z,18.27
2019-05-17T12:11:12.179Z,18.78
2019-05-17T12:13:45.654Z,18.98
2019-05-17T12:16:19.051Z,18.80
2019-05-17T12:18:52.533Z,18.56
2019-05-17T12:21:25.924Z,18.34
2019-05-17T12:23:59.336Z,18.41
2019-05-17T12:26:32.819Z,18.66
2019-05-17T12:29:06.334Z,19.00
2019-05-17T12:31:39.886Z,19.39
2019-05-17T12:34:13.307Z,18.75
2019-05-17T12:36:46.722Z,19.31
2019-05-17T12:39:20.224Z,19.02
2019-05-17T12:41:53.808Z,19.73
2019-05-17T12:44:27.622Z,19.66
2019-05-17T12:47:01.045Z,19.12
2019-05-17T12:49:34.457Z,19.06
2019-05-17T12:52:07.845Z,18.65
2019-05-17T12:54:41.265Z,18.57
2019-05-17T12:57:14.693Z,18.71
2019-05-17T12:59:48.101Z,18.79
2019-05-17T13:02:21.513Z,19.17
2019-05-17T13:04:54.958Z,19.17
2019-05-17T13:07:28.384Z,19.48
2019-05-17T13:10:01.824Z,19.85
2019-05-17T13:12:35.217Z,19.16
2019-05-17T13:15:09.600Z,18.97
2019-05-17T13:17:43.070Z,18.94
2019-05-17T13:20:17.222Z,19.37
2019-05-17T13:22:50.719Z,19.59
2019-05-17T13:25:24.116Z,19.77
2019-05-17T13:27:57.527Z,19.38
2019-05-17T13:30:30.960Z,19.40
2019-05-17T13:33:04.566Z,19.44
2019-05-17T13:35:37.989Z,19.76
2019-05-17T13:38:11.390Z,20.41
2019-05-17T13:40:45.136Z,20.53
2019-05-17T13:43:18.559Z,20.08
2019-05-17T13:45:51.966Z,20.00
2019-05-17T13:48:25.352Z,19.71
2019-05-17T13:50:58.787Z,19.62
2019-05-17T13:53:32.178Z,20.39
2019-05-17T13:56:05.766Z,19.93
2019-05-17T13:58:39.202Z,21.26
2019-05-17T14:01:12.623Z,20.62
2019-05-17T14:03:46.022Z,20.88
2019-05-17T14:06:19.447Z,21.51
2019-05-17T14:08:52.866Z,21.74
2019-05-17T14:11:26.338Z,21.34
2019-05-17T14:13:59.793Z,21.02
2019-05-17T14:16:34.683Z,20.66
2019-05-17T14:19:08.863Z,20.66
2019-05-17T14:21:42.793Z,21.26
2019-05-17T14:24:16.637Z,21.14
2019-05-17T14:26:49.999Z,20.81
2019-05-17T14:29:23.463Z,20.43
2019-05-17T14:31:56.897Z,20.05
2019-05-17T14:34:30.282Z,19.96
2019-05-17T14:37:07.390Z,19.92
2019-05-17T14:39:38.835Z,19.63
2019-05-17T14:42:12.328Z,19.75
2019-05-17T14:44:45.875Z,19.90
2019-05-17T14:47:19.297Z,19.85
2019-05-17T14:49:52.690Z,19.67
2019-05-17T14:52:26.257Z,19.79
2019-05-17T14:54:59.879Z,19.98
2019-05-17T14:57:33.300Z,20.13
2019-05-17T15:00:07.348Z,19.96
2019-05-17T15:02:40.777Z,19.77
2019-05-17T15:05:15.007Z,19.79
2019-05-17T15:07:48.570Z,20.24
2019-05-17T15:10:21.957Z,20.09
2019-05-17T15:12:55.394Z,19.92
2019-05-17T15:15:28.785Z,19.78
2019-05-17T15:18:02.280Z,19.96
2019-05-17T15:20:35.677Z,20.21
2019-05-17T15:23:09.084Z,20.63
2019-05-17T15:25:42.490Z,21.06
2019-05-17T15:28:15.920Z,20.69
2019-05-17T15:30:49.297Z,21.34
2019-05-17T15:33:22.700Z,21.01
2019-05-17T15:35:56.102Z,21.09
2019-05-17T15:38:29.548Z,22.80
2019-05-17T15:41:02.934Z,23.19
2019-05-17T15:43:36.374Z,21.33
2019-05-17T15:46:09.750Z,22.79
2019-05-17T15:48:43.161Z,22.23
2019-05-17T15:51:16.592Z,22.74
2019-05-17T15:53:50.014Z,23.43
2019-05-17T15:56:23.445Z,23.95
2019-05-17T15:58:56.862Z,23.04
2019-05-17T16:01:30.284Z,23.12
2019-05-17T16:04:03.758Z,23.70
2019-05-17T16:06:37.243Z,23.09
2019-05-17T16:09:10.659Z,23.49
2019-05-17T16:11:44.082Z,23.14
2019-05-17T16:14:17.506Z,23.17
2019-05-17T16:16:50.933Z,24.20
2019-05-17T16:19:24.335Z,21.24
2019-05-17T16:21:57.726Z,23.08
2019-05-17T16:24:31.155Z,22.20
2019-05-17T16:27:04.778Z,21.36
2019-05-17T16:29:38.204Z,21.18
2019-05-17T16:32:11.587Z,20.89
2019-05-17T16:34:45.009Z,20.40
2019-05-17T16:37:18.405Z,21.17
2019-05-17T16:39:52.060Z,21.48
2019-05-17T16:42:25.593Z,20.47
2019-05-17T16:44:58.998Z,21.55
2019-05-17T16:47:32.416Z,21.56
2019-05-17T16:50:08.765Z,20.80
2019-05-17T16:52:42.154Z,20.80
2019-05-17T16:55:15.799Z,21.73
2019-05-17T16:57:49.303Z,21.20
2019-05-17T17:00:40.401Z,21.76
2019-05-17T17:03:13.848Z,21.74
2019-05-17T17:05:47.276Z,21.55
2019-05-17T17:08:20.647Z,21.04
2019-05-17T17:10:54.064Z,21.16
2019-05-17T17:13:33.087Z,21.12
2019-05-17T17:16:02.717Z,21.02
2019-05-17T17:18:36.550Z,21.19
2019-05-17T17:21:10.094Z,20.99
2019-05-17T17:23:43.577Z,20.60
2019-05-17T17:26:16.987Z,20.29
2019-05-17T17:28:50.535Z,19.92
2019-05-17T17:31:24.055Z,19.45
2019-05-17T17:33:57.453Z,19.24
2019-05-17T17:36:30.935Z,19.23
2019-05-17T17:39:05.938Z,19.15
2019-05-17T17:41:39.407Z,19.28
2019-05-17T17:44:12.837Z,19.39
2019-05-17T17:46:46.612Z,19.25
2019-05-17T17:49:20.041Z,19.26
2019-05-17T17:51:53.449Z,19.27
2019-05-17T17:54:26.846Z,19.27
2019-05-17T17:57:00.253Z,19.33
2019-05-17T17:59:33.737Z,19.37
2019-05-17T18:02:07.568Z,19.31
2019-05-17T18:04:40.990Z,19.25
2019-05-17T18:07:14.450Z,19.17
2019-05-17T18:09:47.857Z,19.02
2019-05-17T18:12:21.277Z,18.95
2019-05-17T18:14:54.696Z,18.93
2019-05-17T18:17:28.114Z,18.85
2019-05-17T18:20:01.498Z,18.89
2019-05-17T18:22:34.933Z,18.84
2019-05-17T18:25:08.508Z,18.84
2019-05-17T18:27:42.011Z,18.86
2019-05-17T18:30:15.809Z,18.80
2019-05-17T18:32:49.247Z,18.82
2019-05-17T18:35:22.643Z,18.76
2019-05-17T18:37:56.222Z,18.72
2019-05-17T18:40:29.631Z,18.63
2019-05-17T18:43:03.012Z,18.60
2019-05-17T18:45:36.423Z,18.59
2019-05-17T18:48:09.927Z,18.58
2019-05-17T18:50:43.335Z,18.53
2019-05-17T18:53:17.444Z,18.52
2019-05-17T18:55:50.839Z,18.52
2019-05-17T18:58:24.264Z,18.47
2019-05-17T19:00:57.717Z,18.44
2019-05-17T19:03:31.229Z,18.40
2019-05-17T19:06:05.407Z,18.37
2019-05-17T19:08:38.837Z,18.32
2019-05-17T19:11:12.328Z,18.27
2019-05-17T19:13:45.732Z,18.24
2019-05-17T19:16:19.146Z,18.16
2019-05-17T19:18:52.557Z,18.12
2019-05-17T19:21:25.968Z,18.07
2019-05-17T19:23:59.410Z,17.91
2019-05-17T19:26:32.826Z,17.71
2019-05-17T19:29:06.398Z,17.69
2019-05-17T19:31:39.795Z,17.65
2019-05-17T19:34:13.293Z,17.65
2019-05-17T19:36:46.715Z,17.57
2019-05-17T19:39:20.127Z,17.54
2019-05-17T19:41:53.595Z,17.41
2019-05-17T19:44:26.936Z,17.20
2019-05-17T19:47:00.372Z,17.05
2019-05-17T19:49:33.770Z,16.94
2019-05-17T19:52:07.274Z,16.93
2019-05-17T19:54:40.662Z,16.94
2019-05-17T19:57:14.092Z,17.04
2019-05-17T19:59:47.505Z,17.01
2019-05-17T20:02:20.987Z,16.81
2019-05-17T20:04:54.403Z,16.49
2019-05-17T20:07:36.344Z,16.32
2019-05-17T20:10:03.636Z,16.24
2019-05-17T20:12:37.031Z,16.24
2019-05-17T20:15:17.175Z,16.11
2019-05-17T20:17:45.953Z,16.05
2019-05-17T20:20:19.580Z,15.97
2019-05-17T20:22:53.030Z,15.91
2019-05-17T20:25:26.447Z,15.80
2019-05-17T20:27:59.885Z,15.73
2019-05-17T20:30:34.454Z,15.65
2019-05-17T20:33:07.948Z,15.58
2019-05-17T20:35:41.347Z,15.58
2019-05-17T20:38:14.780Z,15.50
2019-05-17T20:40:48.263Z,15.43
2019-05-17T20:43:21.675Z,15.34
2019-05-17T20:45:55.094Z,15.35
2019-05-17T20:48:28.547Z,15.29
2019-05-17T20:51:01.978Z,15.23
2019-05-17T20:53:35.377Z,15.29
2019-05-17T20:56:08.818Z,15.25
2019-05-17T20:58:42.232Z,15.25
2019-05-17T21:01:15.709Z,15.31
2019-05-17T21:03:49.133Z,15.30
2019-05-17T21:06:22.599Z,15.27
2019-05-17T21:08:56.028Z,15.25
2019-05-17T21:11:29.498Z,15.16
2019-05-17T21:14:03.016Z,15.03
2019-05-17T21:16:36.398Z,14.84
2019-05-17T21:19:09.849Z,14.77
2019-05-17T21:21:43.239Z,14.72
2019-05-17T21:24:16.675Z,14.66
2019-05-17T21:26:50.048Z,14.69
2019-05-17T21:29:23.509Z,14.71
2019-05-17T21:31:56.890Z,14.69
2019-05-17T21:34:30.310Z,14.61
2019-05-17T21:37:03.786Z,14.47
2019-05-17T21:39:37.216Z,14.40
2019-05-17T21:42:10.598Z,14.36
2019-05-17T21:44:44.149Z,14.50
2019-05-17T21:47:17.489Z,14.60
2019-05-17T21:49:50.964Z,14.50
2019-05-17T21:52:24.361Z,14.42
2019-05-17T21:54:57.770Z,14.44
2019-05-17T21:57:31.174Z,14.42
2019-05-17T22:00:10.185Z,14.34
2019-05-17T22:02:43.597Z,14.30
2019-05-17T22:05:17.023Z,14.15
2019-05-17T22:07:50.407Z,14.12
2019-05-17T22:10:23.847Z,14.15
2019-05-17T22:12:57.231Z,14.26
2019-05-17T22:15:30.683Z,14.40
2019-05-17T22:18:04.123Z,14.32
2019-05-17T22:20:37.531Z,14.19
2019-05-17T22:23:10.910Z,14.20
2019-05-17T22:25:44.333Z,14.18
2019-05-17T22:28:17.718Z,14.12
2019-05-17T22:30:51.129Z,14.03
2019-05-17T22:33:24.524Z,13.99
2019-05-17T22:35:57.939Z,13.98
2019-05-17T22:38:31.398Z,14.08
2019-05-17T22:41:04.833Z,14.10
2019-05-17T22:43:38.211Z,14.04
2019-05-17T22:46:11.651Z,13.98
2019-05-17T22:48:45.041Z,13.95
2019-05-17T22:51:18.464Z,13.89
2019-05-17T22:53:51.853Z,13.73
2019-05-17T22:56:25.266Z,13.65
2019-05-17T22:58:58.659Z,13.62
2019-05-17T23:01:32.151Z,13.53
2019-05-17T23:04:05.596Z,13.48
2019-05-17T23:06:39.024Z,13.36
2019-05-17T23:09:12.400Z,13.27
2019-05-17T23:11:45.819Z,13.17
2019-05-17T23:14:19.316Z,13.08
2019-05-17T23:16:52.718Z,13.11
2019-05-17T23:19:26.117Z,13.06
2019-05-17T23:21:59.544Z,12.75
2019-05-17T23:24:32.941Z,12.75
2019-05-17T23:27:06.376Z,12.65
2019-05-17T23:29:41.273Z,12.57
2019-05-17T23:32:14.873Z,12.49
2019-05-17T23:34:48.272Z,12.42
2019-05-17T23:37:21.678Z,12.39
2019-05-17T23:39:55.060Z,12.30
2019-05-17T23:42:28.489Z,12.16
2019-05-17T23:45:01.972Z,12.28
2019-05-17T23:47:35.459Z,12.31
2019-05-17T23:50:09.601Z,12.16
2019-05-17T23:52:43.183Z,11.98
2019-05-17T23:55:16.646Z,11.88
2019-05-17T23:57:50.074Z,11.91
